sensor_id;sensor_type;location;lat;lon;timestamp;P1;durP1;ratioP1;P2;durP2;ratioP2
54993;SDS011;40891;47.242;8.648;2023-12-20T00:01:22;12.10;;;7.67;;
54993;SDS011;40891;47.242;8.648;2023-12-20T00:03:48;12.27;;;7.20;;
54993;SDS011;40891;47.242;8.648;2023-12-20T00:06:13;13.80;;;7.33;;
54993;SDS011;40891;47.242;8.648;2023-12-20T00:08:38;14.90;;;8.43;;
54993;SDS011;40891;47.242;8.648;2023-12-20T00:11:04;11.10;;;6.63;;
54993;SDS011;40891;47.242;8.648;2023-12-20T00:13:29;12.83;;;7.53;;
54993;SDS011;40891;47.242;8.648;2023-12-20T00:15:54;13.50;;;7.97;;
54993;SDS011;40891;47.242;8.648;2023-12-20T00:18:20;11.47;;;7.50;;
54993;SDS011;40891;47.242;8.648;2023-12-20T00:20:45;11.23;;;7.10;;
54993;SDS011;40891;47.242;8.648;2023-12-20T00:23:10;12.77;;;7.40;;
54993;SDS011;40891;47.242;8.648;2023-12-20T00:25:36;12.10;;;7.17;;
54993;SDS011;40891;47.242;8.648;2023-12-20T00:28:01;12.07;;;7.57;;
54993;SDS011;40891;47.242;8.648;2023-12-20T00:30:27;12.07;;;6.83;;
54993;SDS011;40891;47.242;8.648;2023-12-20T00:32:52;13.10;;;7.90;;
54993;SDS011;40891;47.242;8.648;2023-12-20T00:35:18;11.87;;;7.53;;
54993;SDS011;40891;47.242;8.648;2023-12-20T00:37:43;12.13;;;7.10;;
54993;SDS011;40891;47.242;8.648;2023-12-20T00:40:09;11.37;;;7.20;;
54993;SDS011;40891;47.242;8.648;2023-12-20T00:42:35;11.37;;;7.27;;
54993;SDS011;40891;47.242;8.648;2023-12-20T00:45:03;11.30;;;7.17;;
54993;SDS011;40891;47.242;8.648;2023-12-20T00:47:29;12.67;;;7.63;;
54993;SDS011;40891;47.242;8.648;2023-12-20T00:49:55;10.47;;;7.10;;
54993;SDS011;40891;47.242;8.648;2023-12-20T00:52:21;11.30;;;7.83;;
54993;SDS011;40891;47.242;8.648;2023-12-20T00:54:47;12.37;;;7.63;;
54993;SDS011;40891;47.242;8.648;2023-12-20T00:57:12;13.77;;;7.70;;
54993;SDS011;40891;47.242;8.648;2023-12-20T00:59:38;12.20;;;8.00;;
54993;SDS011;40891;47.242;8.648;2023-12-20T01:02:03;12.50;;;7.17;;
54993;SDS011;40891;47.242;8.648;2023-12-20T01:04:28;13.10;;;7.00;;
54993;SDS011;40891;47.242;8.648;2023-12-20T01:06:54;12.97;;;7.10;;
54993;SDS011;40891;47.242;8.648;2023-12-20T01:09:19;9.10;;;5.37;;
54993;SDS011;40891;47.242;8.648;2023-12-20T01:11:45;9.33;;;5.70;;
54993;SDS011;40891;47.242;8.648;2023-12-20T01:14:13;9.20;;;6.37;;
54993;SDS011;40891;47.242;8.648;2023-12-20T01:16:38;11.13;;;6.30;;
54993;SDS011;40891;47.242;8.648;2023-12-20T01:19:03;10.07;;;6.00;;
54993;SDS011;40891;47.242;8.648;2023-12-20T01:21:29;9.73;;;6.37;;
54993;SDS011;40891;47.242;8.648;2023-12-20T01:23:54;12.27;;;6.17;;
54993;SDS011;40891;47.242;8.648;2023-12-20T01:26:19;9.87;;;5.57;;
54993;SDS011;40891;47.242;8.648;2023-12-20T01:28:44;11.43;;;5.83;;
54993;SDS011;40891;47.242;8.648;2023-12-20T01:31:10;8.70;;;5.07;;
54993;SDS011;40891;47.242;8.648;2023-12-20T01:33:35;8.60;;;5.53;;
54993;SDS011;40891;47.242;8.648;2023-12-20T01:36:00;9.47;;;5.60;;
54993;SDS011;40891;47.242;8.648;2023-12-20T01:38:26;11.53;;;5.67;;
54993;SDS011;40891;47.242;8.648;2023-12-20T01:40:51;9.73;;;5.60;;
54993;SDS011;40891;47.242;8.648;2023-12-20T01:43:16;10.87;;;5.80;;
54993;SDS011;40891;47.242;8.648;2023-12-20T01:45:42;11.30;;;5.87;;
54993;SDS011;40891;47.242;8.648;2023-12-20T01:48:07;9.30;;;6.00;;
54993;SDS011;40891;47.242;8.648;2023-12-20T01:50:33;11.70;;;7.10;;
54993;SDS011;40891;47.242;8.648;2023-12-20T01:53:01;12.67;;;7.20;;
54993;SDS011;40891;47.242;8.648;2023-12-20T01:55:28;11.37;;;7.03;;
54993;SDS011;40891;47.242;8.648;2023-12-20T01:57:56;12.13;;;6.80;;
54993;SDS011;40891;47.242;8.648;2023-12-20T02:00:22;12.43;;;7.47;;
54993;SDS011;40891;47.242;8.648;2023-12-20T02:02:49;10.60;;;7.03;;
54993;SDS011;40891;47.242;8.648;2023-12-20T02:05:17;11.90;;;7.03;;
54993;SDS011;40891;47.242;8.648;2023-12-20T02:07:43;13.83;;;7.80;;
54993;SDS011;40891;47.242;8.648;2023-12-20T02:10:08;12.07;;;7.47;;
54993;SDS011;40891;47.242;8.648;2023-12-20T02:12:34;11.37;;;7.00;;
54993;SDS011;40891;47.242;8.648;2023-12-20T02:14:59;11.43;;;7.30;;
54993;SDS011;40891;47.242;8.648;2023-12-20T02:17:25;14.03;;;8.17;;
54993;SDS011;40891;47.242;8.648;2023-12-20T02:19:50;14.37;;;8.33;;
54993;SDS011;40891;47.242;8.648;2023-12-20T02:22:16;12.60;;;8.43;;
54993;SDS011;40891;47.242;8.648;2023-12-20T02:24:41;13.30;;;7.67;;
54993;SDS011;40891;47.242;8.648;2023-12-20T02:27:07;14.53;;;8.00;;
54993;SDS011;40891;47.242;8.648;2023-12-20T02:29:33;14.07;;;8.07;;
54993;SDS011;40891;47.242;8.648;2023-12-20T02:31:59;13.77;;;7.17;;
54993;SDS011;40891;47.242;8.648;2023-12-20T02:34:24;11.67;;;7.53;;
54993;SDS011;40891;47.242;8.648;2023-12-20T02:36:50;11.17;;;7.03;;
54993;SDS011;40891;47.242;8.648;2023-12-20T02:39:15;13.20;;;8.20;;
54993;SDS011;40891;47.242;8.648;2023-12-20T02:41:40;12.63;;;8.17;;
54993;SDS011;40891;47.242;8.648;2023-12-20T02:44:06;11.97;;;7.37;;
54993;SDS011;40891;47.242;8.648;2023-12-20T02:46:31;12.77;;;7.70;;
54993;SDS011;40891;47.242;8.648;2023-12-20T02:48:56;17.53;;;8.67;;
54993;SDS011;40891;47.242;8.648;2023-12-20T02:51:22;13.13;;;8.43;;
54993;SDS011;40891;47.242;8.648;2023-12-20T02:53:47;13.13;;;7.77;;
54993;SDS011;40891;47.242;8.648;2023-12-20T02:56:12;12.17;;;8.07;;
54993;SDS011;40891;47.242;8.648;2023-12-20T02:58:39;14.17;;;8.47;;
54993;SDS011;40891;47.242;8.648;2023-12-20T03:01:05;12.90;;;7.23;;
54993;SDS011;40891;47.242;8.648;2023-12-20T03:03:30;11.43;;;7.47;;
54993;SDS011;40891;47.242;8.648;2023-12-20T03:05:56;12.23;;;7.40;;
54993;SDS011;40891;47.242;8.648;2023-12-20T03:08:21;11.77;;;7.10;;
54993;SDS011;40891;47.242;8.648;2023-12-20T03:10:46;9.87;;;6.30;;
54993;SDS011;40891;47.242;8.648;2023-12-20T03:13:12;12.33;;;6.57;;
54993;SDS011;40891;47.242;8.648;2023-12-20T03:15:37;11.20;;;6.57;;
54993;SDS011;40891;47.242;8.648;2023-12-20T03:18:02;7.03;;;4.23;;
54993;SDS011;40891;47.242;8.648;2023-12-20T03:20:28;7.73;;;4.17;;
54993;SDS011;40891;47.242;8.648;2023-12-20T03:22:53;6.00;;;3.80;;
54993;SDS011;40891;47.242;8.648;2023-12-20T03:25:18;5.33;;;3.80;;
54993;SDS011;40891;47.242;8.648;2023-12-20T03:27:44;6.00;;;4.17;;
54993;SDS011;40891;47.242;8.648;2023-12-20T03:30:09;7.97;;;4.63;;
54993;SDS011;40891;47.242;8.648;2023-12-20T03:32:35;7.30;;;4.37;;
54993;SDS011;40891;47.242;8.648;2023-12-20T03:35:00;5.50;;;4.00;;
54993;SDS011;40891;47.242;8.648;2023-12-20T03:37:25;8.47;;;4.67;;
54993;SDS011;40891;47.242;8.648;2023-12-20T03:39:51;8.40;;;5.10;;
54993;SDS011;40891;47.242;8.648;2023-12-20T03:42:16;6.03;;;4.13;;
54993;SDS011;40891;47.242;8.648;2023-12-20T03:44:41;6.00;;;4.07;;
54993;SDS011;40891;47.242;8.648;2023-12-20T03:47:07;9.50;;;4.60;;
54993;SDS011;40891;47.242;8.648;2023-12-20T03:49:32;8.13;;;4.47;;
54993;SDS011;40891;47.242;8.648;2023-12-20T03:51:58;8.37;;;4.63;;
54993;SDS011;40891;47.242;8.648;2023-12-20T03:54:23;9.90;;;5.83;;
54993;SDS011;40891;47.242;8.648;2023-12-20T03:56:49;9.87;;;5.63;;
54993;SDS011;40891;47.242;8.648;2023-12-20T03:59:14;8.87;;;6.00;;
54993;SDS011;40891;47.242;8.648;2023-12-20T04:01:42;13.10;;;6.00;;
54993;SDS011;40891;47.242;8.648;2023-12-20T04:04:09;11.10;;;6.23;;
54993;SDS011;40891;47.242;8.648;2023-12-20T04:06:35;11.37;;;5.93;;
54993;SDS011;40891;47.242;8.648;2023-12-20T04:09:01;10.17;;;5.60;;
54993;SDS011;40891;47.242;8.648;2023-12-20T04:11:26;9.73;;;6.60;;
54993;SDS011;40891;47.242;8.648;2023-12-20T04:13:51;11.43;;;5.57;;
54993;SDS011;40891;47.242;8.648;2023-12-20T04:16:17;9.17;;;5.80;;
54993;SDS011;40891;47.242;8.648;2023-12-20T04:18:42;8.67;;;5.40;;
54993;SDS011;40891;47.242;8.648;2023-12-20T04:21:07;8.40;;;6.13;;
54993;SDS011;40891;47.242;8.648;2023-12-20T04:23:33;9.70;;;6.13;;
54993;SDS011;40891;47.242;8.648;2023-12-20T04:25:58;10.20;;;5.77;;
54993;SDS011;40891;47.242;8.648;2023-12-20T04:28:23;9.00;;;5.90;;
54993;SDS011;40891;47.242;8.648;2023-12-20T04:30:49;10.63;;;5.33;;
54993;SDS011;40891;47.242;8.648;2023-12-20T04:33:14;8.90;;;5.53;;
54993;SDS011;40891;47.242;8.648;2023-12-20T04:35:39;9.17;;;5.23;;
54993;SDS011;40891;47.242;8.648;2023-12-20T04:38:06;8.93;;;5.43;;
54993;SDS011;40891;47.242;8.648;2023-12-20T04:40:31;8.70;;;5.60;;
54993;SDS011;40891;47.242;8.648;2023-12-20T04:42:57;9.67;;;6.37;;
54993;SDS011;40891;47.242;8.648;2023-12-20T04:45:22;10.33;;;5.67;;
54993;SDS011;40891;47.242;8.648;2023-12-20T04:47:49;7.90;;;5.17;;
54993;SDS011;40891;47.242;8.648;2023-12-20T04:50:15;7.43;;;4.93;;
54993;SDS011;40891;47.242;8.648;2023-12-20T04:52:40;9.83;;;4.57;;
54993;SDS011;40891;47.242;8.648;2023-12-20T04:55:06;8.07;;;4.77;;
54993;SDS011;40891;47.242;8.648;2023-12-20T04:57:31;7.60;;;4.43;;
54993;SDS011;40891;47.242;8.648;2023-12-20T04:59:57;8.50;;;5.00;;
54993;SDS011;40891;47.242;8.648;2023-12-20T05:02:22;8.47;;;5.17;;
54993;SDS011;40891;47.242;8.648;2023-12-20T05:04:48;7.67;;;5.17;;
54993;SDS011;40891;47.242;8.648;2023-12-20T05:07:13;9.10;;;5.53;;
54993;SDS011;40891;47.242;8.648;2023-12-20T05:09:38;9.23;;;5.23;;
54993;SDS011;40891;47.242;8.648;2023-12-20T05:12:04;9.10;;;4.90;;
54993;SDS011;40891;47.242;8.648;2023-12-20T05:14:30;7.47;;;4.67;;
54993;SDS011;40891;47.242;8.648;2023-12-20T05:16:56;7.50;;;4.50;;
54993;SDS011;40891;47.242;8.648;2023-12-20T05:19:21;7.70;;;4.90;;
54993;SDS011;40891;47.242;8.648;2023-12-20T05:21:47;6.23;;;4.17;;
54993;SDS011;40891;47.242;8.648;2023-12-20T05:24:12;6.97;;;3.87;;
54993;SDS011;40891;47.242;8.648;2023-12-20T05:26:37;5.40;;;3.30;;
54993;SDS011;40891;47.242;8.648;2023-12-20T05:29:03;4.10;;;2.57;;
54993;SDS011;40891;47.242;8.648;2023-12-20T05:31:28;4.50;;;2.20;;
54993;SDS011;40891;47.242;8.648;2023-12-20T05:33:53;5.43;;;2.70;;
54993;SDS011;40891;47.242;8.648;2023-12-20T05:36:19;3.40;;;2.13;;
54993;SDS011;40891;47.242;8.648;2023-12-20T05:38:44;3.10;;;1.80;;
54993;SDS011;40891;47.242;8.648;2023-12-20T05:41:10;4.17;;;1.90;;
54993;SDS011;40891;47.242;8.648;2023-12-20T05:43:35;3.53;;;2.20;;
54993;SDS011;40891;47.242;8.648;2023-12-20T05:46:00;3.47;;;1.90;;
54993;SDS011;40891;47.242;8.648;2023-12-20T05:48:26;4.90;;;1.67;;
54993;SDS011;40891;47.242;8.648;2023-12-20T05:50:51;2.13;;;1.60;;
54993;SDS011;40891;47.242;8.648;2023-12-20T05:53:16;2.30;;;1.70;;
54993;SDS011;40891;47.242;8.648;2023-12-20T05:55:42;2.17;;;1.30;;
54993;SDS011;40891;47.242;8.648;2023-12-20T05:58:07;2.03;;;1.33;;
54993;SDS011;40891;47.242;8.648;2023-12-20T06:00:32;2.33;;;1.60;;
54993;SDS011;40891;47.242;8.648;2023-12-20T06:02:58;2.20;;;1.40;;
54993;SDS011;40891;47.242;8.648;2023-12-20T06:05:23;2.07;;;1.43;;
54993;SDS011;40891;47.242;8.648;2023-12-20T06:07:49;3.23;;;1.40;;
54993;SDS011;40891;47.242;8.648;2023-12-20T06:10:15;2.83;;;1.50;;
54993;SDS011;40891;47.242;8.648;2023-12-20T06:12:41;1.70;;;1.37;;
54993;SDS011;40891;47.242;8.648;2023-12-20T06:15:07;3.07;;;1.77;;
54993;SDS011;40891;47.242;8.648;2023-12-20T06:17:32;2.60;;;2.00;;
54993;SDS011;40891;47.242;8.648;2023-12-20T06:19:58;4.40;;;1.93;;
54993;SDS011;40891;47.242;8.648;2023-12-20T06:22:23;3.40;;;2.23;;
54993;SDS011;40891;47.242;8.648;2023-12-20T06:24:48;2.10;;;1.67;;
54993;SDS011;40891;47.242;8.648;2023-12-20T06:27:14;4.77;;;1.90;;
54993;SDS011;40891;47.242;8.648;2023-12-20T06:29:39;4.07;;;1.93;;
54993;SDS011;40891;47.242;8.648;2023-12-20T06:32:06;1.67;;;1.10;;
54993;SDS011;40891;47.242;8.648;2023-12-20T06:34:31;2.33;;;1.23;;
54993;SDS011;40891;47.242;8.648;2023-12-20T06:36:56;3.27;;;1.23;;
54993;SDS011;40891;47.242;8.648;2023-12-20T06:39:22;3.93;;;1.30;;
54993;SDS011;40891;47.242;8.648;2023-12-20T06:41:47;2.20;;;1.40;;
54993;SDS011;40891;47.242;8.648;2023-12-20T06:44:12;3.00;;;1.40;;
54993;SDS011;40891;47.242;8.648;2023-12-20T06:46:37;2.00;;;1.40;;
54993;SDS011;40891;47.242;8.648;2023-12-20T06:49:03;2.23;;;1.40;;
54993;SDS011;40891;47.242;8.648;2023-12-20T06:51:28;1.97;;;1.50;;
54993;SDS011;40891;47.242;8.648;2023-12-20T06:53:53;2.67;;;1.63;;
54993;SDS011;40891;47.242;8.648;2023-12-20T06:56:19;2.00;;;1.40;;
54993;SDS011;40891;47.242;8.648;2023-12-20T06:58:44;1.77;;;1.40;;
54993;SDS011;40891;47.242;8.648;2023-12-20T07:01:13;1.90;;;1.40;;
54993;SDS011;40891;47.242;8.648;2023-12-20T07:03:39;2.37;;;1.70;;
54993;SDS011;40891;47.242;8.648;2023-12-20T07:06:05;4.27;;;2.03;;
54993;SDS011;40891;47.242;8.648;2023-12-20T07:08:31;4.57;;;2.70;;
54993;SDS011;40891;47.242;8.648;2023-12-20T07:10:56;4.53;;;1.77;;
54993;SDS011;40891;47.242;8.648;2023-12-20T07:13:22;7.10;;;4.10;;
54993;SDS011;40891;47.242;8.648;2023-12-20T07:15:47;7.10;;;4.03;;
54993;SDS011;40891;47.242;8.648;2023-12-20T07:18:13;7.73;;;5.37;;
54993;SDS011;40891;47.242;8.648;2023-12-20T07:20:38;11.90;;;5.83;;
54993;SDS011;40891;47.242;8.648;2023-12-20T07:23:04;9.23;;;6.30;;
54993;SDS011;40891;47.242;8.648;2023-12-20T07:25:29;12.00;;;6.80;;
54993;SDS011;40891;47.242;8.648;2023-12-20T07:27:57;9.83;;;6.50;;
54993;SDS011;40891;47.242;8.648;2023-12-20T07:30:23;13.33;;;8.37;;
54993;SDS011;40891;47.242;8.648;2023-12-20T07:32:48;11.47;;;7.73;;
54993;SDS011;40891;47.242;8.648;2023-12-20T07:35:14;11.33;;;8.07;;
54993;SDS011;40891;47.242;8.648;2023-12-20T07:37:40;12.53;;;7.40;;
54993;SDS011;40891;47.242;8.648;2023-12-20T07:40:06;13.13;;;8.53;;
54993;SDS011;40891;47.242;8.648;2023-12-20T07:42:32;16.77;;;8.77;;
54993;SDS011;40891;47.242;8.648;2023-12-20T07:44:57;15.33;;;9.07;;
54993;SDS011;40891;47.242;8.648;2023-12-20T07:47:23;13.77;;;9.20;;
54993;SDS011;40891;47.242;8.648;2023-12-20T07:49:50;13.73;;;8.50;;
54993;SDS011;40891;47.242;8.648;2023-12-20T07:52:16;14.47;;;9.67;;
54993;SDS011;40891;47.242;8.648;2023-12-20T07:54:43;15.67;;;9.73;;
54993;SDS011;40891;47.242;8.648;2023-12-20T07:57:08;14.87;;;9.47;;
54993;SDS011;40891;47.242;8.648;2023-12-20T07:59:35;16.37;;;9.83;;
54993;SDS011;40891;47.242;8.648;2023-12-20T08:02:00;19.90;;;10.00;;
54993;SDS011;40891;47.242;8.648;2023-12-20T08:04:26;15.03;;;10.20;;
54993;SDS011;40891;47.242;8.648;2023-12-20T08:06:51;16.47;;;10.07;;
54993;SDS011;40891;47.242;8.648;2023-12-20T08:09:16;16.90;;;9.67;;
54993;SDS011;40891;47.242;8.648;2023-12-20T08:11:45;15.70;;;9.27;;
54993;SDS011;40891;47.242;8.648;2023-12-20T08:14:11;16.70;;;9.07;;
54993;SDS011;40891;47.242;8.648;2023-12-20T08:16:36;11.23;;;7.70;;
54993;SDS011;40891;47.242;8.648;2023-12-20T08:19:01;13.20;;;8.23;;
54993;SDS011;40891;47.242;8.648;2023-12-20T08:21:27;14.47;;;9.30;;
54993;SDS011;40891;47.242;8.648;2023-12-20T08:23:52;15.90;;;9.73;;
54993;SDS011;40891;47.242;8.648;2023-12-20T08:26:21;13.63;;;8.77;;
54993;SDS011;40891;47.242;8.648;2023-12-20T08:28:49;12.93;;;7.80;;
54993;SDS011;40891;47.242;8.648;2023-12-20T08:31:16;9.63;;;6.53;;
54993;SDS011;40891;47.242;8.648;2023-12-20T08:33:45;12.20;;;7.53;;
54993;SDS011;40891;47.242;8.648;2023-12-20T08:36:12;5.37;;;3.80;;
54993;SDS011;40891;47.242;8.648;2023-12-20T08:38:37;4.33;;;3.30;;
54993;SDS011;40891;47.242;8.648;2023-12-20T08:41:03;7.33;;;4.97;;
54993;SDS011;40891;47.242;8.648;2023-12-20T08:43:30;10.67;;;6.40;;
54993;SDS011;40891;47.242;8.648;2023-12-20T08:45:57;16.13;;;9.03;;
54993;SDS011;40891;47.242;8.648;2023-12-20T08:48:22;16.60;;;9.43;;
54993;SDS011;40891;47.242;8.648;2023-12-20T08:50:47;14.10;;;9.67;;
54993;SDS011;40891;47.242;8.648;2023-12-20T08:53:14;15.67;;;9.27;;
54993;SDS011;40891;47.242;8.648;2023-12-20T08:55:41;14.83;;;9.57;;
54993;SDS011;40891;47.242;8.648;2023-12-20T08:58:06;15.00;;;10.00;;
54993;SDS011;40891;47.242;8.648;2023-12-20T09:00:33;14.47;;;8.90;;
54993;SDS011;40891;47.242;8.648;2023-12-20T09:02:58;13.57;;;9.50;;
54993;SDS011;40891;47.242;8.648;2023-12-20T09:05:24;14.77;;;9.80;;
54993;SDS011;40891;47.242;8.648;2023-12-20T09:07:50;15.03;;;9.20;;
54993;SDS011;40891;47.242;8.648;2023-12-20T09:10:15;14.70;;;8.60;;
54993;SDS011;40891;47.242;8.648;2023-12-20T09:12:40;12.30;;;8.03;;
54993;SDS011;40891;47.242;8.648;2023-12-20T09:15:07;14.87;;;8.23;;
54993;SDS011;40891;47.242;8.648;2023-12-20T09:17:33;14.47;;;8.70;;
54993;SDS011;40891;47.242;8.648;2023-12-20T09:19:58;16.07;;;9.10;;
54993;SDS011;40891;47.242;8.648;2023-12-20T09:22:24;15.10;;;8.70;;
54993;SDS011;40891;47.242;8.648;2023-12-20T09:24:50;16.60;;;9.97;;
54993;SDS011;40891;47.242;8.648;2023-12-20T09:27:15;11.57;;;8.13;;
54993;SDS011;40891;47.242;8.648;2023-12-20T09:29:40;15.93;;;8.90;;
54993;SDS011;40891;47.242;8.648;2023-12-20T09:32:06;12.33;;;8.60;;
54993;SDS011;40891;47.242;8.648;2023-12-20T09:34:31;14.47;;;9.17;;
54993;SDS011;40891;47.242;8.648;2023-12-20T09:36:56;12.43;;;8.37;;
54993;SDS011;40891;47.242;8.648;2023-12-20T09:39:22;12.27;;;8.13;;
54993;SDS011;40891;47.242;8.648;2023-12-20T09:42:00;12.27;;;7.77;;
54993;SDS011;40891;47.242;8.648;2023-12-20T09:44:27;10.77;;;7.50;;
54993;SDS011;40891;47.242;8.648;2023-12-20T09:46:52;10.87;;;8.50;;
54993;SDS011;40891;47.242;8.648;2023-12-20T09:49:19;11.77;;;7.80;;
54993;SDS011;40891;47.242;8.648;2023-12-20T09:51:46;11.37;;;7.20;;
54993;SDS011;40891;47.242;8.648;2023-12-20T09:54:12;11.90;;;7.77;;
54993;SDS011;40891;47.242;8.648;2023-12-20T09:56:42;11.67;;;7.83;;
54993;SDS011;40891;47.242;8.648;2023-12-20T09:59:07;13.23;;;8.00;;
54993;SDS011;40891;47.242;8.648;2023-12-20T10:01:33;11.43;;;7.57;;
54993;SDS011;40891;47.242;8.648;2023-12-20T10:03:59;3.17;;;2.27;;
54993;SDS011;40891;47.242;8.648;2023-12-20T10:06:25;4.00;;;2.00;;
54993;SDS011;40891;47.242;8.648;2023-12-20T10:08:51;3.83;;;2.10;;
54993;SDS011;40891;47.242;8.648;2023-12-20T10:11:17;3.27;;;1.90;;
54993;SDS011;40891;47.242;8.648;2023-12-20T10:13:44;2.47;;;1.73;;
54993;SDS011;40891;47.242;8.648;2023-12-20T10:16:12;5.63;;;2.10;;
54993;SDS011;40891;47.242;8.648;2023-12-20T10:18:37;2.40;;;1.60;;
54993;SDS011;40891;47.242;8.648;2023-12-20T10:21:03;2.90;;;1.70;;
54993;SDS011;40891;47.242;8.648;2023-12-20T10:23:28;1.53;;;1.43;;
54993;SDS011;40891;47.242;8.648;2023-12-20T10:25:56;3.30;;;1.70;;
54993;SDS011;40891;47.242;8.648;2023-12-20T10:28:23;3.27;;;1.60;;
54993;SDS011;40891;47.242;8.648;2023-12-20T10:30:52;3.20;;;2.00;;
54993;SDS011;40891;47.242;8.648;2023-12-20T10:33:24;2.17;;;1.73;;
54993;SDS011;40891;47.242;8.648;2023-12-20T10:35:50;2.73;;;2.10;;
54993;SDS011;40891;47.242;8.648;2023-12-20T10:38:17;1.70;;;1.30;;
54993;SDS011;40891;47.242;8.648;2023-12-20T10:40:42;1.70;;;1.43;;
54993;SDS011;40891;47.242;8.648;2023-12-20T10:43:10;2.70;;;1.60;;
54993;SDS011;40891;47.242;8.648;2023-12-20T10:45:36;2.20;;;1.73;;
54993;SDS011;40891;47.242;8.648;2023-12-20T10:48:02;2.00;;;1.60;;
54993;SDS011;40891;47.242;8.648;2023-12-20T10:50:28;2.10;;;1.90;;
54993;SDS011;40891;47.242;8.648;2023-12-20T10:52:54;4.50;;;2.33;;
54993;SDS011;40891;47.242;8.648;2023-12-20T10:55:21;3.50;;;2.10;;
54993;SDS011;40891;47.242;8.648;2023-12-20T10:57:48;2.10;;;1.90;;
54993;SDS011;40891;47.242;8.648;2023-12-20T11:00:16;4.77;;;2.23;;
54993;SDS011;40891;47.242;8.648;2023-12-20T11:02:43;2.57;;;1.90;;
54993;SDS011;40891;47.242;8.648;2023-12-20T11:05:24;3.00;;;1.77;;
54993;SDS011;40891;47.242;8.648;2023-12-20T11:11:06;3.93;;;2.83;;
54993;SDS011;40891;47.242;8.648;2023-12-20T11:13:40;4.00;;;1.80;;
54993;SDS011;40891;47.242;8.648;2023-12-20T11:16:13;3.87;;;2.70;;
54993;SDS011;40891;47.242;8.648;2023-12-20T11:18:38;3.40;;;2.30;;
54993;SDS011;40891;47.242;8.648;2023-12-20T11:21:05;3.83;;;2.47;;
54993;SDS011;40891;47.242;8.648;2023-12-20T11:23:32;3.13;;;2.20;;
54993;SDS011;40891;47.242;8.648;2023-12-20T11:25:59;3.67;;;2.70;;
54993;SDS011;40891;47.242;8.648;2023-12-20T11:28:26;3.23;;;2.50;;
54993;SDS011;40891;47.242;8.648;2023-12-20T11:30:53;3.50;;;2.50;;
54993;SDS011;40891;47.242;8.648;2023-12-20T11:33:22;3.13;;;2.40;;
54993;SDS011;40891;47.242;8.648;2023-12-20T11:35:49;4.37;;;2.30;;
54993;SDS011;40891;47.242;8.648;2023-12-20T11:38:15;2.87;;;1.80;;
54993;SDS011;40891;47.242;8.648;2023-12-20T11:40:43;2.33;;;1.73;;
54993;SDS011;40891;47.242;8.648;2023-12-20T11:43:09;3.57;;;2.30;;
54993;SDS011;40891;47.242;8.648;2023-12-20T11:45:34;4.13;;;2.60;;
54993;SDS011;40891;47.242;8.648;2023-12-20T11:48:00;1.93;;;1.63;;
54993;SDS011;40891;47.242;8.648;2023-12-20T11:50:27;2.03;;;1.63;;
54993;SDS011;40891;47.242;8.648;2023-12-20T11:52:54;1.90;;;1.60;;
54993;SDS011;40891;47.242;8.648;2023-12-20T11:55:21;2.43;;;1.60;;
54993;SDS011;40891;47.242;8.648;2023-12-20T11:57:50;2.30;;;1.70;;
54993;SDS011;40891;47.242;8.648;2023-12-20T12:00:16;2.00;;;1.73;;
54993;SDS011;40891;47.242;8.648;2023-12-20T12:02:42;3.07;;;2.13;;
54993;SDS011;40891;47.242;8.648;2023-12-20T12:05:07;2.50;;;2.00;;
54993;SDS011;40891;47.242;8.648;2023-12-20T12:07:36;3.50;;;1.80;;
54993;SDS011;40891;47.242;8.648;2023-12-20T12:10:01;1.90;;;1.50;;
54993;SDS011;40891;47.242;8.648;2023-12-20T12:12:28;4.13;;;1.40;;
54993;SDS011;40891;47.242;8.648;2023-12-20T12:14:55;2.27;;;1.53;;
54993;SDS011;40891;47.242;8.648;2023-12-20T12:17:21;2.17;;;1.70;;
54993;SDS011;40891;47.242;8.648;2023-12-20T12:19:47;2.07;;;1.40;;
54993;SDS011;40891;47.242;8.648;2023-12-20T12:22:13;2.47;;;1.80;;
54993;SDS011;40891;47.242;8.648;2023-12-20T12:24:40;5.27;;;1.70;;
54993;SDS011;40891;47.242;8.648;2023-12-20T12:27:06;2.23;;;1.67;;
54993;SDS011;40891;47.242;8.648;2023-12-20T12:29:32;2.17;;;1.60;;
54993;SDS011;40891;47.242;8.648;2023-12-20T12:31:59;3.43;;;1.77;;
54993;SDS011;40891;47.242;8.648;2023-12-20T12:34:24;1.63;;;1.40;;
54993;SDS011;40891;47.242;8.648;2023-12-20T12:36:52;2.07;;;1.60;;
54993;SDS011;40891;47.242;8.648;2023-12-20T12:39:17;2.07;;;1.60;;
54993;SDS011;40891;47.242;8.648;2023-12-20T12:41:43;3.60;;;1.50;;
54993;SDS011;40891;47.242;8.648;2023-12-20T12:44:08;3.03;;;1.63;;
54993;SDS011;40891;47.242;8.648;2023-12-20T12:46:34;2.73;;;1.70;;
54993;SDS011;40891;47.242;8.648;2023-12-20T12:48:59;3.70;;;1.60;;
54993;SDS011;40891;47.242;8.648;2023-12-20T12:51:25;1.77;;;1.27;;
54993;SDS011;40891;47.242;8.648;2023-12-20T12:53:50;1.77;;;1.10;;
54993;SDS011;40891;47.242;8.648;2023-12-20T12:56:16;2.33;;;1.30;;
54993;SDS011;40891;47.242;8.648;2023-12-20T12:58:41;2.13;;;1.20;;
54993;SDS011;40891;47.242;8.648;2023-12-20T13:01:07;1.30;;;1.10;;
54993;SDS011;40891;47.242;8.648;2023-12-20T13:03:33;2.37;;;1.40;;
54993;SDS011;40891;47.242;8.648;2023-12-20T13:05:59;2.73;;;0.90;;
54993;SDS011;40891;47.242;8.648;2023-12-20T13:08:24;1.67;;;1.00;;
54993;SDS011;40891;47.242;8.648;2023-12-20T13:10:50;1.77;;;1.20;;
54993;SDS011;40891;47.242;8.648;2023-12-20T13:13:15;1.83;;;1.10;;
54993;SDS011;40891;47.242;8.648;2023-12-20T13:15:40;1.17;;;0.93;;
54993;SDS011;40891;47.242;8.648;2023-12-20T13:18:06;2.80;;;1.20;;
54993;SDS011;40891;47.242;8.648;2023-12-20T13:20:31;2.27;;;1.10;;
54993;SDS011;40891;47.242;8.648;2023-12-20T13:22:58;2.80;;;1.00;;
54993;SDS011;40891;47.242;8.648;2023-12-20T13:25:23;1.23;;;0.90;;
54993;SDS011;40891;47.242;8.648;2023-12-20T13:27:49;4.50;;;1.13;;
54993;SDS011;40891;47.242;8.648;2023-12-20T13:30:15;2.20;;;1.30;;
54993;SDS011;40891;47.242;8.648;2023-12-20T13:32:42;1.73;;;0.90;;
54993;SDS011;40891;47.242;8.648;2023-12-20T13:35:07;1.00;;;0.80;;
54993;SDS011;40891;47.242;8.648;2023-12-20T13:37:34;1.80;;;1.00;;
54993;SDS011;40891;47.242;8.648;2023-12-20T13:39:59;1.73;;;1.07;;
54993;SDS011;40891;47.242;8.648;2023-12-20T13:42:25;1.83;;;1.00;;
54993;SDS011;40891;47.242;8.648;2023-12-20T13:44:52;1.00;;;0.90;;
54993;SDS011;40891;47.242;8.648;2023-12-20T13:47:18;1.57;;;1.00;;
54993;SDS011;40891;47.242;8.648;2023-12-20T13:49:44;2.63;;;1.07;;
54993;SDS011;40891;47.242;8.648;2023-12-20T13:52:10;3.00;;;1.07;;
54993;SDS011;40891;47.242;8.648;2023-12-20T13:54:36;1.20;;;0.97;;
54993;SDS011;40891;47.242;8.648;2023-12-20T13:57:01;1.80;;;1.10;;
54993;SDS011;40891;47.242;8.648;2023-12-20T13:59:28;2.00;;;1.10;;
54993;SDS011;40891;47.242;8.648;2023-12-20T14:01:53;3.07;;;1.13;;
54993;SDS011;40891;47.242;8.648;2023-12-20T14:04:18;2.33;;;1.03;;
54993;SDS011;40891;47.242;8.648;2023-12-20T14:06:44;1.57;;;1.00;;
54993;SDS011;40891;47.242;8.648;2023-12-20T14:09:09;2.10;;;1.10;;
54993;SDS011;40891;47.242;8.648;2023-12-20T14:11:36;2.87;;;1.00;;
54993;SDS011;40891;47.242;8.648;2023-12-20T14:14:06;2.20;;;1.07;;
54993;SDS011;40891;47.242;8.648;2023-12-20T14:16:34;2.93;;;1.20;;
54993;SDS011;40891;47.242;8.648;2023-12-20T14:19:00;2.23;;;1.27;;
54993;SDS011;40891;47.242;8.648;2023-12-20T14:21:25;4.30;;;1.30;;
54993;SDS011;40891;47.242;8.648;2023-12-20T14:23:50;1.47;;;1.10;;
54993;SDS011;40891;47.242;8.648;2023-12-20T14:26:17;1.50;;;1.10;;
54993;SDS011;40891;47.242;8.648;2023-12-20T14:28:42;2.30;;;1.27;;
54993;SDS011;40891;47.242;8.648;2023-12-20T14:31:08;2.73;;;1.30;;
54993;SDS011;40891;47.242;8.648;2023-12-20T14:33:35;2.50;;;0.97;;
54993;SDS011;40891;47.242;8.648;2023-12-20T14:36:01;3.53;;;1.47;;
54993;SDS011;40891;47.242;8.648;2023-12-20T14:38:28;3.00;;;1.40;;